Latest Weather Observations for Camden

IDN60801

Issued at 9:35 am EST Thursday 18 September 2014 (issued every 30 minutes, with the page automatically refreshed every 10 minutes)

About weather observations | Map of weather stations | Latest weather observations for NSW | Other Formats
Station Details ID: 068192 Name: CAMDEN AIRPORT AWS Lat: -34.04 Lon: 150.69 Height: 73.9 m
Data from the previous 72 hours. | See also: Recent months at Camden
Date/Time
EST
Temp
°C
App
Temp
°C
Dew
Point
Rel
Hum
%
Delta-T
°C
Wind Press
QNH
hPa
Press
MSL
hPa
Rain
since 9 am
mm
Dir
 
Spd
km/h
Gust
km/h
Spd
kts
Gust
kts
18/09:30am 15.6 9.2 -1.9 30 7.1 WSW 22 33 12 18 1018.9 1018.8 0.0
18/09:00am 15.4 9.1 -0.8 33 6.8 WSW 22 32 12 17 1018.9 1018.8 0.0
18/08:30am 13.9 7.1 -2.1 33 6.4 WSW 24 35 13 19 1018.8 1018.7 0.0
18/08:00am 13.3 7.4 -1.1 37 5.8 WSW 20 33 11 18 1018.5 1018.4 0.0
18/07:30am 12.2 8.4 1.5 48 4.6 W 11 19 6 10 1018.3 1018.2 0.0
18/07:00am 10.2 8.3 3.0 61 3.1 W 2 9 1 5 1018.4 1018.3 0.0
18/06:30am 8.6 6.1 1.7 62 2.9 S 4 11 2 6 1017.8 1017.7 0.0
18/06:00am 9.0 5.1 1.2 58 3.2 WNW 11 15 6 8 1017.3 1017.2 0.0
18/05:30am 9.3 5.9 1.7 59 3.2 WNW 9 17 5 9 1016.9 1016.8 0.0
18/05:00am 10.0 7.1 2.4 59 3.2 N 7 9 4 5 1016.7 1016.6 0.0
18/04:30am 9.6 6.6 2.0 59 3.2 W 7 11 4 6 1016.5 1016.4 0.0
18/04:00am 10.7 7.6 1.5 53 3.9 WSW 7 13 4 7 1016.2 1016.1 0.0
18/03:30am 9.8 6.4 1.7 57 3.4 WSW 9 17 5 9 1016.0 1015.9 0.0
18/03:00am 10.7 7.3 1.8 54 3.8 SW 9 15 5 8 1015.7 1015.6 0.0
18/02:30am 10.6 6.4 1.7 54 3.8 SW 13 20 7 11 1015.6 1015.5 0.0
18/02:00am 10.8 7.1 2.1 55 3.7 SW 11 24 6 13 1015.6 1015.5 0.0
18/01:30am 11.6 8.6 0.7 47 4.5 W 6 7 3 4 1015.6 1015.5 0.0
18/01:00am 12.8 10.1 0.5 43 5.2 W 4 11 2 6 1015.5 1015.4 0.0
18/12:30am 12.0 8.0 0.8 46 4.7 WSW 11 15 6 8 1015.5 1015.4 0.0
18/12:00am 12.9 8.5 0.6 43 5.2 WSW 13 22 7 12 1015.3 1015.3 0.0
 
Date/Time
EST
Temp
°C
App
Temp
°C
Dew
Point
Rel
Hum
%
Delta-T
°C
Wind Press
QNH
hPa
Press
MSL
hPa
Rain
since 9 am
mm
Dir
 
Spd
km/h
Gust
km/h
Spd
kts
Gust
kts
17/11:30pm 13.0 7.9 1.0 44 5.1 W 17 28 9 15 1015.0 1015.0 0.0
17/11:00pm 12.8 8.6 1.5 46 4.8 W 13 20 7 11 1015.2 1015.2 0.0
17/10:30pm 12.4 7.8 1.7 48 4.6 W 15 24 8 13 1015.0 1015.0 0.0
17/10:00pm 13.0 8.9 2.3 48 4.7 W 13 20 7 11 1014.9 1014.9 0.0
17/09:30pm 13.5 10.0 3.3 50 4.6 W 11 20 6 11 1014.6 1014.6 0.0
17/09:00pm 13.8 9.9 3.6 50 4.6 W 13 20 7 11 1014.3 1014.3 0.0
17/08:30pm 12.7 9.6 3.6 54 4.1 W 9 13 5 7 1014.1 1014.1 0.0
17/08:00pm 12.1 9.4 3.6 56 3.8 WNW 7 11 4 6 1013.9 1013.9 0.0
17/07:30pm 13.7 11.1 3.2 49 4.7 WSW 6 7 3 4 1013.5 1013.5 0.0
17/07:00pm 14.9 10.6 3.4 46 5.2 WSW 15 20 8 11 1013.3 1013.3 0.0
17/06:30pm 15.5 11.0 2.3 41 5.9 W 15 20 8 11 1013.0 1013.0 0.0
17/06:00pm 15.7 11.2 2.2 40 6.0 W 15 24 8 13 1012.6 1012.6 0.0
17/05:30pm 17.1 11.2 1.5 35 7.0 WNW 22 35 12 19 1012.2 1012.2 0.0
17/05:00pm 18.3 12.0 1.3 32 7.6 W 24 32 13 17 1011.7 1011.7 0.0
17/04:30pm 18.3 11.6 1.3 32 7.6 W 26 39 14 21 1011.5 1011.5 0.0
17/04:00pm 19.5 12.3 0.5 28 8.5 W 28 43 15 23 1011.0 1011.0 0.0
17/03:36pm 19.7 12.6 1.2 29 8.4 WSW 28 46 15 25 1010.8 1010.8 0.0
17/03:30pm 19.4 11.8 0.4 28 8.4 WSW 30 46 16 25 1010.8 1010.8 0.0
17/03:00pm 19.5 11.4 -0.5 26 8.7 W 32 44 17 24 1010.7 1010.7 0.0
17/02:30pm 19.4 11.3 0.9 29 8.3 WSW 33 46 18 25 1010.7 1010.7 0.0
17/02:23pm 20.0 12.0 1.4 29 8.5 W 33 52 18 28 1010.7 1010.7 0.0
17/02:14pm 19.5 9.7 0.0 27 8.6 W 41 52 22 28 1010.6 1010.6 0.0
17/02:00pm 20.0 11.6 1.4 29 8.5 WSW 35 56 19 30 1010.7 1010.7 0.0
17/01:45pm 19.9 12.4 1.4 29 8.4 W 30 50 16 27 1010.8 1010.8 0.0
17/01:30pm 19.7 12.0 2.1 31 8.1 W 32 46 17 25 1010.9 1010.9 0.0
17/01:00pm 19.3 11.4 1.3 30 8.1 W 32 44 17 24 1011.0 1011.0 0.0
17/12:39pm 19.4 9.5 1.4 30 8.2 WSW 43 54 23 29 1010.8 1010.8 0.0
17/12:36pm 19.9 10.0 1.8 30 8.3 W 43 50 23 27 1010.7 1010.7 0.0
17/12:30pm 19.6 12.1 1.1 29 8.4 WSW 30 43 16 23 1010.7 1010.7 0.0
17/12:02pm 19.8 12.2 0.8 28 8.5 WSW 30 50 16 27 1010.8 1010.8 0.0
17/12:00pm 20.1 13.4 1.5 29 8.5 WSW 26 35 14 19 1010.8 1010.8 0.0
17/11:30am 19.2 11.9 0.3 28 8.4 WSW 28 50 15 27 1011.1 1011.1 0.0
17/11:14am 18.9 10.8 0.0 28 8.3 W 32 50 17 27 1011.3 1011.3 0.0
17/11:00am 18.9 11.0 1.0 30 8.0 W 32 44 17 24 1011.6 1011.6 0.0
17/10:30am 18.8 10.9 2.2 33 7.6 WSW 33 46 18 25 1011.8 1011.8 0.0
17/10:06am 18.9 11.6 2.3 33 7.6 WSW 30 54 16 29 1011.8 1011.8 0.0
17/10:00am 18.6 10.8 2.0 33 7.6 WSW 32 44 17 24 1011.9 1011.9 0.0
17/09:30am 17.8 10.4 1.7 34 7.2 SW 30 41 16 22 1012.2 1012.2 0.0
17/09:00am 17.2 11.1 2.8 38 6.6 SW 24 37 13 20 1012.6 1012.6 1.6
17/08:30am 16.7 13.2 3.4 41 6.1 WSW 11 20 6 11 1012.8 1012.8 1.6
17/08:00am 15.8 10.3 3.9 45 5.5 W 22 39 12 21 1012.8 1012.8 1.6
17/07:30am 15.4 10.5 4.2 47 5.2 W 19 28 10 15 1012.5 1012.5 1.6
17/07:00am 14.8 10.6 3.6 47 5.1 W 15 30 8 16 1012.3 1012.3 1.6
17/06:30am 13.9 10.2 4.2 52 4.5 WSW 13 20 7 11 1012.1 1012.1 1.6
17/06:00am 13.8 10.5 4.4 53 4.3 W 11 19 6 10 1011.5 1011.5 1.6
17/05:30am 13.9 11.4 4.5 53 4.3 SW 7 11 4 6 1011.2 1011.2 1.6
17/05:00am 14.4 10.0 4.7 52 4.5 WSW 17 28 9 15 1010.7 1010.7 1.6
17/04:30am 14.3 10.0 5.4 55 4.2 WSW 17 26 9 14 1010.2 1010.2 1.6
17/04:00am 14.0 10.8 6.8 62 3.5 WSW 13 20 7 11 1010.0 1010.0 1.6
17/03:30am 13.8 11.4 7.1 64 3.3 SW 9 13 5 7 1009.8 1009.8 1.6
17/03:00am 13.8 11.9 6.9 63 3.4 W 6 11 3 6 1009.9 1009.9 1.6
17/02:30am 13.7 11.9 7.0 64 3.3 WSW 6 11 3 6 1009.7 1009.7 1.6
17/02:00am 14.0 11.6 6.8 62 3.5 WSW 9 15 5 8 1009.8 1009.8 1.6
17/01:30am 14.2 10.7 7.0 62 3.5 WSW 15 24 8 13 1009.8 1009.8 1.6
17/01:00am 14.2 12.1 6.8 61 3.6 SW 7 13 4 7 1009.8 1009.8 1.6
17/12:30am 14.7 10.5 7.3 61 3.7 WSW 19 26 10 14 1009.7 1009.7 1.6
17/12:00am 13.8 11.8 6.4 61 3.6 SSW 6 11 3 6 1009.7 1009.7 1.6
 
Date/Time
EST
Temp
°C
App
Temp
°C
Dew
Point
Rel
Hum
%
Delta-T
°C
Wind Press
QNH
hPa
Press
MSL
hPa
Rain
since 9 am
mm
Dir
 
Spd
km/h
Gust
km/h
Spd
kts
Gust
kts
16/11:30pm 14.4 12.9 6.7 60 3.7 WNW 4 11 2 6 1009.8 1009.8 1.6
16/11:00pm 13.9 11.4 6.7 62 3.5 WNW 9 13 5 7 1009.9 1009.9 1.6
16/10:30pm 13.4 11.0 7.2 66 3.0 WNW 9 13 5 7 1010.0 1010.0 1.6
16/10:00pm 13.5 10.7 6.8 64 3.3 W 11 13 6 7 1010.1 1010.1 1.6
16/09:30pm 12.8 9.5 6.6 66 3.0 W 13 13 7 7 1010.3 1010.3 1.6
16/09:00pm 14.5 11.1 6.1 57 4.0 WSW 13 15 7 8 1010.4 1010.4 1.6
16/08:30pm 15.2 11.5 6.2 55 4.4 WSW 15 20 8 11 1010.3 1010.3 1.6
16/08:00pm 14.9 11.3 6.7 58 4.0 SW 15 19 8 10 1010.4 1010.4 1.6
16/07:30pm 16.5 13.5 6.1 50 5.1 W 11 15 6 8 1010.0 1010.0 1.6
16/07:00pm 17.6 13.1 5.9 46 5.7 W 19 28 10 15 1009.5 1009.5 1.6
16/06:30pm 17.5 12.9 5.8 46 5.7 W 19 26 10 14 1009.0 1009.0 1.6
16/06:00pm 18.3 12.7 5.5 43 6.3 WNW 24 41 13 22 1008.4 1008.3 1.6
16/05:30pm 19.0 13.5 5.8 42 6.5 W 24 32 13 17 1007.8 1007.7 1.6
16/05:00pm 19.9 14.3 5.5 39 7.1 W 24 37 13 20 1007.3 1007.2 1.6
16/04:30pm 20.6 15.7 5.0 36 7.7 WNW 20 30 11 16 1006.8 1006.7 1.4
16/04:00pm 21.3 16.5 5.6 36 7.9 NW 20 28 11 15 1006.4 1006.3 1.4
16/03:30pm 19.3 19.1 13.7 70 3.2 S 7 11 4 6 1006.3 1006.2 1.4
16/03:00pm 19.6 20.3 14.4 72 3.0 S 4 9 2 5 1006.1 1006.0 1.4
16/02:30pm 18.7 18.9 14.8 78 2.3 S 7 13 4 7 1006.1 1006.0 1.4
16/02:00pm 16.4 15.6 13.9 85 1.4 SSE 11 15 6 8 1006.3 1006.2 1.4
16/01:30pm 20.9 19.2 13.6 63 4.2 E 15 19 8 10 1005.7 1005.6 0.0
16/01:00pm 21.0 18.5 13.4 62 4.4 NE 19 24 10 13 1006.1 1006.0 0.0
16/12:30pm 20.8 18.9 11.7 56 5.1 N 13 20 7 11 1007.2 1007.1 0.0
16/12:00pm 20.5 17.7 12.5 60 4.5 NNE 19 24 10 13 1007.8 1007.7 0.0
16/11:30am 20.7 18.9 13.2 62 4.3 NE 15 24 8 13 1008.5 1008.5 0.0
16/11:00am 19.3 19.1 13.7 70 3.2 NNE 7 19 4 10 1009.3 1009.3 0.0
16/10:30am 17.5 17.0 12.2 71 2.9 N 6 13 3 7 1010.0 1010.0 0.0
16/10:27am 17.5 17.1 12.4 72 2.8 N 6 11 3 6 1010.0 1010.0 0.0
16/10:00am 15.8 15.3 12.2 79 2.0 N 6 9 3 5 1010.3 1010.3 0.0
16/09:30am 15.4 14.4 12.2 81 1.8 NW 9 11 5 6 1010.9 1010.9 0.0
16/09:00am 16.1 15.6 12.5 79 2.0 W 7 11 4 6 1010.7 1010.7 0.0
16/08:30am 15.7 15.7 12.3 80 1.9 WNW 4 11 2 6 1010.9 1010.9 0.0
16/08:23am 15.7 14.6 12.1 79 2.0 N 9 13 5 7 1011.3 1011.3 0.0
16/08:00am 15.3 15.4 12.8 85 1.4 SSE 4 9 2 5 1011.5 1011.5 0.0
16/07:30am 14.5 14.1 12.5 88 1.1 N 6 9 3 5 1011.6 1011.6 0.0
16/07:00am 13.9 13.4 12.6 92 0.7 SE 7 13 4 7 1011.7 1011.7 0.0
16/06:30am 13.8 14.6 12.7 93 0.6 CALM 0 6 0 3 1012.2 1012.2 0.0
16/06:00am 13.1 12.0 12.0 93 0.6 S 9 13 5 7 1011.6 1011.6 0.0
16/05:30am 13.0 13.6 11.9 93 0.6 CALM 0 0 0 0 1012.1 1012.1 0.0
16/05:00am 12.8 11.3 11.9 94 0.5 NE 11 13 6 7 1011.9 1011.9 0.0
16/04:30am 13.0 12.3 12.1 94 0.5 S 7 9 4 5 1012.8 1012.8 0.0
16/04:00am 13.2 12.8 12.3 94 0.5 ESE 6 7 3 4 1012.7 1012.7 0.0
16/03:30am 12.9 13.5 12.0 94 0.5 CALM 0 0 0 0 1012.5 1012.5 0.0
16/03:00am 12.8 13.4 12.0 95 0.4 CALM 0 0 0 0 1012.8 1012.8 0.0
16/02:30am 12.3 12.7 11.4 94 0.5 CALM 0 0 0 0 1013.1 1013.1 0.0
16/02:00am 12.3 11.4 11.2 93 0.6 S 7 9 4 5 1013.2 1013.2 0.0
16/01:30am 12.2 12.4 10.4 89 0.9 CALM 0 0 0 0 1013.5 1013.5 0.0
16/01:00am 13.1 13.7 11.8 92 0.7 CALM 0 0 0 0 1014.2 1014.2 0.0
16/12:30am 13.3 13.1 11.9 91 0.8 SE 4 13 2 7 1014.3 1014.3 0.0
16/12:00am 13.6 12.7 11.3 86 1.2 SE 7 9 4 5 1014.9 1014.9 0.0
 
Date/Time
EST
Temp
°C
App
Temp
°C
Dew
Point
Rel
Hum
%
Delta-T
°C
Wind Press
QNH
hPa
Press
MSL
hPa
Rain
since 9 am
mm
Dir
 
Spd
km/h
Gust
km/h
Spd
kts
Gust
kts
15/11:30pm 13.8 13.6 11.8 88 1.1 N 4 9 2 5 1015.8 1015.7 0.0
15/11:00pm 14.3 14.9 11.8 85 1.3 CALM 0 0 0 0 1016.1 1016.0 0.0
15/10:30pm 13.8 14.2 11.3 85 1.3 CALM 0 0 0 0 1016.1 1016.0 0.0
15/10:00pm 13.9 14.3 11.1 83 1.5 CALM 0 0 0 0 1016.0 1015.9 0.0
15/09:30pm 14.4 14.8 11.2 81 1.7 CALM 0 0 0 0 1016.2 1016.1 0.0
15/09:00pm 15.3 14.3 11.1 76 2.2 ENE 7 9 4 5 1016.5 1016.4 0.0
15/08:30pm 14.9 13.8 10.7 76 2.2 NE 7 7 4 4 1016.5 1016.4 0.0
15/08:00pm 14.8 13.7 10.6 76 2.2 ENE 7 9 4 5 1016.2 1016.1 0.0
15/07:30pm 14.9 15.1 10.7 76 2.2 CALM 0 0 0 0 1016.2 1016.1 0.0
15/07:00pm 15.4 14.3 10.6 73 2.5 E 7 9 4 5 1015.9 1015.8 0.0
15/06:30pm 16.0 14.8 10.3 69 3.0 E 7 9 4 5 1015.5 1015.4 0.0
15/06:00pm 16.7 14.6 9.9 64 3.6 E 11 17 6 9 1015.1 1015.1 0.0
15/05:30pm 17.7 14.5 9.8 60 4.2 E 17 24 9 13 1014.8 1014.8 0.0
15/05:00pm 19.0 15.8 10.0 56 4.8 ENE 17 24 9 13 1014.4 1014.4 0.0
15/04:30pm 19.8 16.6 10.0 53 5.3 ENE 17 26 9 14 1014.3 1014.3 0.0
15/04:00pm 20.5 17.3 10.0 51 5.7 ENE 17 26 9 14 1014.1 1014.1 0.0
15/03:30pm 21.5 18.5 9.4 46 6.5 ENE 15 30 8 16 1014.0 1014.0 0.0
15/03:00pm 22.3 19.8 6.5 36 8.1 E 9 13 5 7 1014.1 1014.1 0.0
15/02:30pm 21.9 19.3 6.2 36 8.0 NNE 9 15 5 8 1014.3 1014.3 0.0
15/02:00pm 21.9 19.4 6.6 37 7.8 NE 9 13 5 7 1014.5 1014.5 0.0
15/01:30pm 21.7 19.6 6.8 38 7.6 E 7 17 4 9 1014.9 1014.9 0.0
15/01:00pm 21.0 19.1 6.9 40 7.2 SE 6 11 3 6 1015.3 1015.3 0.0
15/12:30pm 20.9 18.9 7.2 41 7.0 S 7 13 4 7 1015.9 1015.8 0.0
15/12:00pm 20.7 18.6 8.4 45 6.4 NE 9 15 5 8 1016.5 1016.4 0.0
15/11:30am 19.2 17.1 8.2 49 5.7 N 9 17 5 9 1017.0 1016.9 0.0
15/11:00am 19.4 17.5 9.0 51 5.5 N 9 11 5 6 1017.4 1017.3 0.0
15/10:30am 18.5 17.2 9.8 57 4.6 N 7 13 4 7 1017.7 1017.6 0.0
15/10:00am 17.5 16.3 9.4 59 4.2 N 6 11 3 6 1017.9 1017.8 0.0

Other Formats:

Comma delimited format used in spreadsheet applications
http://www.bom.gov.au/fwo/IDN60801/IDN60801.94755.axf

JavaScript Object Notation format (JSON) in row-major order
http://www.bom.gov.au/fwo/IDN60801/IDN60801.94755.json